Time;durP1;ratioP1;P1;durP2;ratioP2;P2;SDS_P1;SDS_P2;PMS_P1;PMS_P2;Temp;Humidity;BMP_temperature;BMP_pressure;BME280_temperature;BME280_humidity;BME280_pressure;Samples;Min_cycle;Max_cycle;Signal;HPM_P1;HPM_P2
2022/10/27 00:01:36;;;;;;;0.98;0.98;;;;;;;11.96;98.94;100645.53;5127868;28;20046;-75
2022/10/27 00:04:01;;;;;;;3.03;2.47;;;;;;;11.99;98.76;100640.31;5109504;28;20023;-73
2022/10/27 00:06:26;;;;;;;0.40;0.40;;;;;;;12.02;98.67;100650.69;5109869;28;20356;-76
2022/10/27 00:08:52;;;;;;;0.40;0.40;;;;;;;12.03;98.57;100649.78;5127756;28;20566;-74
2022/10/27 00:11:18;;;;;;;1.08;1.05;;;;;;;12.01;99.16;100642.88;5127726;28;20104;-74
2022/10/27 00:13:44;;;;;;;2.25;2.05;;;;;;;12.01;99.09;100637.69;5109495;28;20020;-74
2022/10/27 00:16:16;;;;;;;0.40;0.40;;;;;;;12.02;99.39;100645.47;5127637;28;20070;-76
2022/10/27 00:18:45;;;;;;;0.40;0.40;;;;;;;12.11;99.12;100644.53;5109016;28;20032;-76
2022/10/27 00:21:14;;;;;;;0.43;0.43;;;;;;;12.13;99.29;100653.19;5109065;28;20050;-75
2022/10/27 00:23:40;;;;;;;0.82;0.82;;;;;;;12.14;99.69;100660.09;5127774;28;20079;-77
2022/10/27 00:26:09;;;;;;;4.55;4.25;;;;;;;12.11;99.67;100654.94;5127464;28;20077;-75
2022/10/27 00:28:34;;;;;;;0.40;0.40;;;;;;;12.18;100.00;100666.16;5127500;28;20078;-75
2022/10/27 00:31:15;;;;;;;0.40;0.40;;;;;;;12.16;99.93;100641.03;5126722;28;20023;-75
2022/10/27 00:33:41;;;;;;;1.47;1.37;;;;;;;12.23;99.72;100651.34;5127293;28;20031;-76
2022/10/27 00:36:12;;;;;;;1.23;1.17;;;;;;;12.25;99.72;100653.94;5127029;28;20040;-74
2022/10/27 00:38:37;;;;;;;1.48;1.38;;;;;;;12.25;100.00;100657.38;5108813;28;20035;-74
2022/10/27 00:41:04;;;;;;;1.33;1.27;;;;;;;12.29;100.00;100647.81;5108648;28;20020;-74
2022/10/27 00:43:32;;;;;;;0.30;0.30;;;;;;;12.34;99.75;100648.63;5127323;28;20032;-74
2022/10/27 00:46:17;;;;;;;0.40;0.40;;;;;;;12.30;99.95;100636.50;5108911;28;20027;-73
2022/10/27 00:48:43;;;;;;;4.18;3.78;;;;;;;12.31;100.00;100638.25;5127000;28;20087;-74
2022/10/27 00:51:11;;;;;;;2.45;2.30;;;;;;;12.33;100.00;100633.84;5126912;28;20082;-73
2022/10/27 00:53:37;;;;;;;0.40;0.40;;;;;;;12.38;99.99;100654.66;5127154;28;20020;-73
2022/10/27 00:56:02;;;;;;;1.30;0.85;;;;;;;12.34;100.00;100646.00;5126943;28;20054;-73
2022/10/27 00:58:28;;;;;;;0.85;0.85;;;;;;;12.37;100.00;100647.72;5126973;28;20108;-73
2022/10/27 01:00:54;;;;;;;0.93;0.93;;;;;;;12.38;100.00;100644.25;5108179;28;20015;-72
2022/10/27 01:03:22;;;;;;;2.25;2.10;;;;;;;12.41;100.00;100651.16;5126659;28;20030;-73
2022/10/27 01:05:49;;;;;;;0.40;0.40;;;;;;;12.44;100.00;100653.72;5126708;28;20031;-72
2022/10/27 01:08:16;;;;;;;0.90;0.90;;;;;;;12.45;100.00;100655.41;5126637;28;20023;-73
2022/10/27 01:10:41;;;;;;;0.55;0.55;;;;;;;12.46;100.00;100651.97;5126660;28;20023;-72
2022/10/27 01:13:07;;;;;;;0.77;0.77;;;;;;;12.44;100.00;100651.97;5126615;28;20079;-72
2022/10/27 01:15:52;;;;;;;0.52;0.52;;;;;;;12.52;100.00;100659.69;5126377;28;20020;-72
2022/10/27 01:18:34;;;;;;;0.60;0.60;;;;;;;12.51;100.00;100656.22;5126271;28;20023;-73
2022/10/27 01:21:17;;;;;;;0.70;0.70;;;;;;;12.54;100.00;100659.66;5126460;28;20045;-73
2022/10/27 01:24:04;;;;;;;1.70;1.60;;;;;;;12.60;100.00;100651.78;5126400;28;20089;-74
2022/10/27 01:26:32;;;;;;;0.60;0.60;;;;;;;12.59;100.00;100655.25;5108202;28;20035;-73
2022/10/27 01:29:19;;;;;;;0.38;0.38;;;;;;;12.59;100.00;100658.72;5126338;28;20023;-73
2022/10/27 01:31:55;;;;;;;0.40;0.40;;;;;;;12.59;100.00;100670.88;5126203;28;20030;-72
2022/10/27 01:34:41;;;;;;;0.82;0.75;;;;;;;12.58;100.00;100669.16;5126103;28;20064;-72
2022/10/27 01:37:14;;;;;;;0.40;0.40;;;;;;;12.59;100.00;100666.53;5125947;28;20056;-71
2022/10/27 01:39:55;;;;;;;0.52;0.52;;;;;;;12.55;100.00;100651.84;5126315;28;20079;-71
2022/10/27 01:42:44;;;;;;;0.40;0.40;;;;;;;12.56;100.00;100666.56;5125448;28;20047;-71
2022/10/27 01:45:13;;;;;;;2.25;2.05;;;;;;;12.59;100.00;100656.13;5090035;28;20031;-70
2022/10/27 01:47:39;;;;;;;0.40;0.40;;;;;;;12.60;100.00;100652.63;5107428;28;20027;-71
2022/10/27 01:50:05;;;;;;;0.50;0.50;;;;;;;12.61;100.00;100649.16;5126177;28;20049;-72
2022/10/27 01:52:37;;;;;;;1.67;1.58;;;;;;;12.60;100.00;100660.44;5107920;28;20043;-70
2022/10/27 01:55:03;;;;;;;0.47;0.47;;;;;;;12.48;100.00;100644.97;5107452;28;20031;-69
2022/10/27 01:57:55;;;;;;;1.30;1.30;;;;;;;12.63;100.00;100660.41;5125724;28;20027;-69
2022/10/27 02:00:21;;;;;;;0.40;0.40;;;;;;;12.63;100.00;100663.03;5107333;28;20023;-69
2022/10/27 02:03:03;;;;;;;1.40;1.33;;;;;;;12.67;100.00;100663.00;5107626;28;20020;-69
2022/10/27 02:05:55;;;;;;;0.70;0.70;;;;;;;12.67;100.00;100663.81;5125892;28;20391;-69
2022/10/27 02:08:36;;;;;;;0.80;0.80;;;;;;;12.68;100.00;100660.34;5125940;28;20090;-69
2022/10/27 02:11:07;;;;;;;0.40;0.40;;;;;;;12.64;100.00;100666.47;5125755;28;20131;-69
2022/10/27 02:13:40;;;;;;;0.82;0.82;;;;;;;12.59;100.00;100663.06;5125885;28;20042;-68
2022/10/27 02:16:17;;;;;;;0.82;0.82;;;;;;;12.60;100.00;100664.81;5125845;28;20034;-69
2022/10/27 02:18:48;;;;;;;0.40;0.40;;;;;;;12.64;100.00;100676.88;5125565;28;20061;-70
2022/10/27 02:21:14;;;;;;;0.68;0.68;;;;;;;12.63;100.00;100673.44;5125708;28;20034;-69
2022/10/27 02:23:40;;;;;;;0.40;0.40;;;;;;;12.64;100.00;100672.56;5107319;28;20092;-69
2022/10/27 02:26:17;;;;;;;0.70;0.70;;;;;;;12.59;100.00;100648.31;5125721;28;20023;-69
2022/10/27 02:28:52;;;;;;;0.40;0.40;;;;;;;12.61;100.00;100664.78;5125691;28;20020;-69
2022/10/27 02:31:21;;;;;;;0.63;0.63;;;;;;;12.61;100.00;100659.56;5125452;28;20106;-70
2022/10/27 02:33:48;;;;;;;0.98;0.95;;;;;;;12.59;100.00;100661.31;5125295;28;20087;-69
2022/10/27 02:36:13;;;;;;;1.33;1.30;;;;;;;12.60;100.00;100657.81;5106930;28;20099;-69
2022/10/27 02:38:39;;;;;;;1.02;0.93;;;;;;;12.60;100.00;100660.44;5125410;28;20031;-70
2022/10/27 02:41:04;;;;;;;2.85;2.65;;;;;;;12.63;100.00;100659.56;5125369;28;20023;-69
2022/10/27 02:43:29;;;;;;;2.97;2.83;;;;;;;12.60;100.00;100657.81;5125605;28;20054;-70
2022/10/27 02:45:55;;;;;;;0.40;0.40;;;;;;;12.60;100.00;100663.03;5125472;28;20027;-70
2022/10/27 02:48:20;;;;;;;4.57;3.00;;;;;;;12.59;100.00;100663.06;5106998;28;20372;-70
2022/10/27 02:50:45;;;;;;;0.60;0.60;;;;;;;12.56;100.00;100663.97;5106947;28;20051;-70
2022/10/27 02:53:11;;;;;;;0.30;0.30;;;;;;;12.59;100.00;100666.53;5126458;28;20020;-72
2022/10/27 02:55:36;;;;;;;0.80;0.80;;;;;;;12.56;100.00;100661.38;5129081;28;20027;-70
2022/10/27 02:58:01;;;;;;;0.80;0.80;;;;;;;12.63;100.00;100669.97;5129245;28;20065;-72
2022/10/27 03:00:27;;;;;;;0.60;0.60;;;;;;;12.63;100.00;100673.44;5129101;28;20075;-72
2022/10/27 03:02:52;;;;;;;2.63;1.83;;;;;;;12.65;100.00;100673.44;5129281;28;20045;-73
2022/10/27 03:05:17;;;;;;;0.35;0.35;;;;;;;12.63;100.00;100669.97;5128960;28;20027;-72
2022/10/27 03:07:43;;;;;;;0.43;0.43;;;;;;;12.63;100.00;100670.84;5129032;28;20015;-72
2022/10/27 03:10:08;;;;;;;0.60;0.60;;;;;;;12.63;100.00;100669.97;5129033;28;20058;-73
2022/10/27 03:12:34;;;;;;;4.80;4.43;;;;;;;12.64;100.00;100675.16;5129080;28;20019;-73
2022/10/27 03:14:59;;;;;;;0.40;0.40;;;;;;;12.63;100.00;100676.06;5110727;28;20027;-72
2022/10/27 03:17:24;;;;;;;1.85;0.77;;;;;;;12.64;100.00;100677.75;5128753;28;20020;-72
2022/10/27 03:19:49;;;;;;;0.40;0.40;;;;;;;12.61;100.00;100672.59;5128768;28;20483;-72
2022/10/27 03:22:15;;;;;;;0.38;0.38;;;;;;;12.63;100.00;100690.81;5128732;28;20053;-72
2022/10/27 03:24:40;;;;;;;0.60;0.60;;;;;;;12.62;100.00;100683.88;5110169;28;20024;-72
2022/10/27 03:27:05;;;;;;;0.40;0.40;;;;;;;12.60;100.00;100683.03;5110612;28;20023;-72
2022/10/27 03:29:31;;;;;;;2.28;1.05;;;;;;;12.60;100.00;100675.22;5110493;28;20024;-72
2022/10/27 03:31:56;;;;;;;0.80;0.80;;;;;;;12.63;100.00;100693.41;5110219;28;20020;-72
2022/10/27 03:34:21;;;;;;;0.68;0.68;;;;;;;12.60;100.00;100688.25;5110091;28;20024;-75
2022/10/27 03:36:47;;;;;;;0.85;0.85;;;;;;;12.65;100.00;100696.88;5128208;28;20457;-75
2022/10/27 03:39:12;;;;;;;0.40;0.40;;;;;;;12.67;100.00;100696.84;5110013;28;20063;-76
2022/10/27 03:41:37;;;;;;;0.93;0.88;;;;;;;12.60;100.00;100689.06;5109968;28;20020;-76
2022/10/27 03:44:03;;;;;;;0.40;0.40;;;;;;;12.66;100.00;100698.59;5110272;28;20059;-75
2022/10/27 03:46:28;;;;;;;0.77;0.77;;;;;;;12.66;100.00;100705.53;5128560;28;20368;-77
2022/10/27 03:48:54;;;;;;;0.40;0.40;;;;;;;12.67;100.00;100710.72;5109732;28;20024;-75
2022/10/27 03:51:20;;;;;;;2.67;2.58;;;;;;;12.69;100.00;100710.69;5128185;28;20487;-75
2022/10/27 03:53:45;;;;;;;0.50;0.50;;;;;;;12.66;100.00;100706.41;5128316;28;20038;-75
2022/10/27 03:56:12;;;;;;;0.50;0.50;;;;;;;12.72;100.00;100708.03;5128083;28;20092;-75
2022/10/27 03:58:38;;;;;;;0.30;0.30;;;;;;;12.74;100.00;100704.56;5128206;28;20076;-76
2022/10/27 04:01:05;;;;;;;0.40;0.40;;;;;;;12.73;100.00;100700.22;5128004;28;20036;-75
2022/10/27 04:03:31;;;;;;;0.43;0.43;;;;;;;12.79;100.00;100712.31;5127828;28;20070;-72
2022/10/27 04:05:56;;;;;;;0.40;0.40;;;;;;;12.80;100.00;100727.06;5127028;28;20542;-72
2022/10/27 04:08:21;;;;;;;1.65;1.60;;;;;;;12.77;100.00;100720.16;5127774;28;20097;-72
2022/10/27 04:10:47;;;;;;;0.40;0.40;;;;;;;12.81;100.00;100715.75;5127711;28;20425;-73
2022/10/27 04:13:12;;;;;;;0.32;0.32;;;;;;;12.82;100.00;100721.81;5109470;28;20063;-71
2022/10/27 04:15:38;;;;;;;0.60;0.60;;;;;;;12.84;100.00;100723.50;5127637;28;20475;-72
2022/10/27 04:18:03;;;;;;;0.40;0.40;;;;;;;12.84;100.00;100725.28;5127670;28;20019;-72
2022/10/27 04:20:29;;;;;;;0.40;0.40;;;;;;;12.83;100.00;100718.31;5127653;28;20015;-67
2022/10/27 04:22:56;;;;;;;2.45;2.35;;;;;;;12.79;100.00;100720.13;5127619;28;20024;-71
2022/10/27 04:25:22;;;;;;;0.30;0.30;;;;;;;12.86;100.00;100726.97;5127474;28;20023;-72
2022/10/27 04:27:47;;;;;;;4.38;4.00;;;;;;;12.87;100.00;100720.91;5127729;28;20061;-72
2022/10/27 04:30:12;;;;;;;0.93;0.93;;;;;;;12.96;100.00;100724.25;5109075;28;20024;-73
2022/10/27 04:32:38;;;;;;;0.40;0.40;;;;;;;12.94;100.00;100729.47;5127230;28;20032;-72
2022/10/27 04:35:04;;;;;;;0.77;0.77;;;;;;;12.96;100.00;100721.63;5127722;28;20024;-72
2022/10/27 04:37:30;;;;;;;0.40;0.40;;;;;;;13.04;100.00;100740.66;5127364;28;20046;-73
2022/10/27 04:39:55;;;;;;;0.30;0.30;;;;;;;13.03;100.00;100723.28;5109061;28;20015;-73
2022/10/27 04:42:20;;;;;;;0.65;0.65;;;;;;;13.07;100.00;100735.41;5127218;28;20024;-75
2022/10/27 04:44:48;;;;;;;0.30;0.30;;;;;;;13.09;100.00;100736.25;5127136;28;20026;-73
2022/10/27 04:47:14;;;;;;;0.30;0.30;;;;;;;13.06;100.00;100736.28;5108639;28;20033;-74
2022/10/27 04:49:39;;;;;;;0.43;0.43;;;;;;;13.08;100.00;100734.50;5126865;28;20522;-76
2022/10/27 04:52:04;;;;;;;2.72;2.50;;;;;;;13.08;100.00;100736.28;5108526;28;20037;-75
2022/10/27 04:54:30;;;;;;;0.40;0.40;;;;;;;13.06;100.00;100733.69;5126865;28;20098;-75
2022/10/27 04:56:55;;;;;;;0.40;0.40;;;;;;;13.07;100.00;100740.59;5126807;28;20471;-75
2022/10/27 04:59:20;;;;;;;0.32;0.32;;;;;;;13.06;100.00;100743.22;5126991;28;20024;-76
2022/10/27 05:01:46;;;;;;;4.50;3.15;;;;;;;13.03;100.00;100744.16;5108383;28;20072;-75
2022/10/27 05:04:11;;;;;;;0.57;0.57;;;;;;;13.05;100.00;100746.72;5126668;28;20030;-75
2022/10/27 05:06:36;;;;;;;0.30;0.30;;;;;;;13.00;100.00;100745.03;5127102;28;20028;-75
2022/10/27 05:09:02;;;;;;;0.30;0.30;;;;;;;13.01;100.00;100740.69;5108430;28;20396;-76
2022/10/27 05:11:27;;;;;;;0.30;0.30;;;;;;;13.07;100.00;100750.16;5107914;28;20030;-76
2022/10/27 05:13:52;;;;;;;0.30;0.30;;;;;;;13.03;100.00;100749.38;5108560;28;20026;-77
2022/10/27 05:16:18;;;;;;;0.30;0.30;;;;;;;13.07;99.90;100758.84;5126797;28;20023;-77
2022/10/27 05:18:44;;;;;;;0.47;0.47;;;;;;;13.09;99.98;100761.44;5108189;28;20026;-76
2022/10/27 05:21:09;;;;;;;0.50;0.50;;;;;;;13.10;99.98;100758.81;5126482;28;20016;-75
2022/10/27 05:23:34;;;;;;;0.40;0.40;;;;;;;13.09;99.88;100758.84;5108271;28;20024;-76
2022/10/27 05:26:00;;;;;;;0.68;0.68;;;;;;;13.11;99.52;100759.69;5108065;28;20038;-75
2022/10/27 05:28:25;;;;;;;0.75;0.65;;;;;;;13.17;99.48;100761.34;5107957;28;20027;-76
2022/10/27 05:30:56;;;;;;;1.77;1.67;;;;;;;13.14;99.68;100763.13;5126373;28;20116;-76
2022/10/27 05:33:22;;;;;;;4.97;3.03;;;;;;;13.15;99.80;100763.97;5108150;28;20143;-76
2022/10/27 05:35:48;;;;;;;0.63;0.63;;;;;;;13.14;99.63;100763.13;5126358;28;20106;-76
2022/10/27 05:38:13;;;;;;;0.30;0.30;;;;;;;13.20;99.58;100766.50;5126468;28;20027;-75
2022/10/27 05:40:39;;;;;;;0.40;0.40;;;;;;;13.15;99.19;100763.97;5126319;28;20019;-77
2022/10/27 05:43:04;;;;;;;0.70;0.70;;;;;;;13.18;99.36;100774.34;5107949;28;20037;-77
2022/10/27 05:45:29;;;;;;;0.40;0.40;;;;;;;13.16;99.37;100770.03;5126408;28;20027;-76
2022/10/27 05:47:57;;;;;;;0.40;0.40;;;;;;;13.14;99.36;100765.72;5125945;28;20079;-77
2022/10/27 05:50:22;;;;;;;1.40;1.20;;;;;;;13.09;99.26;100764.91;5106972;28;20028;-77
2022/10/27 05:52:48;;;;;;;0.43;0.43;;;;;;;13.17;99.19;100771.75;5106957;28;20057;-77
2022/10/27 05:55:13;;;;;;;0.57;0.57;;;;;;;13.14;99.19;100772.66;5126196;28;20026;-76
2022/10/27 05:57:38;;;;;;;0.35;0.35;;;;;;;13.12;99.33;100780.50;5107758;28;20016;-76
2022/10/27 06:00:04;;;;;;;0.45;0.45;;;;;;;13.12;99.12;100775.31;5125951;28;20019;-75
2022/10/27 06:02:29;;;;;;;1.45;1.38;;;;;;;13.14;99.46;100791.78;5126075;28;20027;-75
2022/10/27 06:04:55;;;;;;;0.95;0.95;;;;;;;13.14;99.15;100794.41;5126008;28;20030;-75
2022/10/27 06:07:20;;;;;;;0.50;0.50;;;;;;;13.07;98.93;100791.88;5107743;28;20047;-76
2022/10/27 06:09:45;;;;;;;0.40;0.40;;;;;;;13.09;99.20;100801.41;5125991;28;20035;-75
2022/10/27 06:12:13;;;;;;;0.43;0.43;;;;;;;13.07;98.98;100800.56;5125884;28;20020;-75
2022/10/27 06:14:38;;;;;;;0.75;0.75;;;;;;;13.06;99.01;100811.88;5126105;28;20023;-75
2022/10/27 06:17:04;;;;;;;0.40;0.40;;;;;;;13.11;98.92;100822.25;5107639;28;20156;-74
2022/10/27 06:19:29;;;;;;;0.40;0.40;;;;;;;13.08;99.09;100820.50;5107301;28;20023;-75
2022/10/27 06:21:54;;;;;;;0.40;0.40;;;;;;;13.07;98.88;100813.59;5107255;28;20183;-74
2022/10/27 06:24:20;;;;;;;2.20;2.05;;;;;;;13.10;98.93;100815.31;5125823;28;20019;-74
2022/10/27 06:26:45;;;;;;;0.40;0.40;;;;;;;13.10;98.91;100831.78;5125846;28;20036;-75
2022/10/27 06:29:10;;;;;;;0.88;0.88;;;;;;;13.05;98.93;100825.78;5128707;28;20028;-74
2022/10/27 06:31:41;;;;;;;0.35;0.35;;;;;;;13.07;98.67;100823.16;5129857;28;20091;-75
2022/10/27 06:34:07;;;;;;;1.85;1.40;;;;;;;13.07;98.88;100817.94;5129644;28;20368;-74
2022/10/27 06:36:32;;;;;;;0.40;0.40;;;;;;;13.07;98.79;100824.00;5111411;28;20119;-74
2022/10/27 06:38:57;;;;;;;0.40;0.40;;;;;;;13.04;98.72;100810.16;5111665;28;20028;-75
2022/10/27 06:41:23;;;;;;;1.75;1.15;;;;;;;13.09;98.98;100822.25;5129859;28;20375;-74
2022/10/27 06:43:48;;;;;;;0.93;0.93;;;;;;;13.06;98.81;100822.31;5111265;28;20039;-75
2022/10/27 06:46:14;;;;;;;0.93;0.93;;;;;;;13.07;98.73;100817.94;5111559;28;20023;-74
2022/10/27 06:48:39;;;;;;;0.30;0.30;;;;;;;13.10;98.87;100825.75;5111219;28;20532;-73
2022/10/27 06:51:05;;;;;;;0.40;0.40;;;;;;;13.06;98.47;100830.13;5111247;28;20028;-74
2022/10/27 06:53:30;;;;;;;0.60;0.60;;;;;;;13.10;98.74;100839.63;5129775;28;20524;-74
2022/10/27 06:55:57;;;;;;;2.30;1.95;;;;;;;13.05;98.59;100828.38;5111094;28;20083;-74
2022/10/27 06:58:22;;;;;;;0.30;0.30;;;;;;;12.95;98.46;100822.44;5111056;28;20087;-74
2022/10/27 07:00:47;;;;;;;0.95;0.95;;;;;;;12.98;98.70;100840.63;5111579;28;20069;-75
2022/10/27 07:03:13;;;;;;;0.47;0.47;;;;;;;13.05;98.68;100849.22;5129445;28;20030;-75
2022/10/27 07:05:39;;;;;;;16.65;4.40;;;;;;;13.09;98.67;100860.50;5130211;28;20031;-74
2022/10/27 07:08:04;;;;;;;0.40;0.40;;;;;;;13.06;98.75;100858.78;5111111;28;20024;-75
2022/10/27 07:10:30;;;;;;;0.40;0.40;;;;;;;13.12;98.90;100863.06;5129380;28;20060;-75
2022/10/27 07:13:00;;;;;;;0.40;0.40;;;;;;;13.07;98.67;100860.50;5129200;28;20034;-75
2022/10/27 07:15:30;;;;;;;0.40;0.40;;;;;;;13.12;98.86;100873.47;5110940;28;20231;-75
2022/10/27 07:18:06;;;;;;;0.30;0.30;;;;;;;13.09;98.70;100865.69;5129019;28;20020;-75
2022/10/27 07:20:33;;;;;;;0.30;0.30;;;;;;;13.15;98.84;100878.66;5129176;28;20046;-76
2022/10/27 07:22:59;;;;;;;0.35;0.35;;;;;;;13.19;98.92;100876.88;5129110;28;20020;-76
2022/10/27 07:25:26;;;;;;;0.75;0.75;;;;;;;13.17;98.56;100876.03;5110680;28;20016;-76
2022/10/27 07:27:55;;;;;;;0.40;0.40;;;;;;;13.17;98.20;100881.25;5129115;28;20024;-75
2022/10/27 07:30:22;;;;;;;1.08;1.08;;;;;;;13.23;97.98;100889.00;5128954;28;20030;-75
2022/10/27 07:32:48;;;;;;;0.32;0.32;;;;;;;13.22;98.16;100895.97;5128691;28;20020;-77
2022/10/27 07:35:15;;;;;;;0.73;0.73;;;;;;;13.22;98.32;100889.88;5128807;28;20051;-75
2022/10/27 07:37:45;;;;;;;0.40;0.40;;;;;;;13.23;98.03;100897.69;5110351;28;20054;-78
2022/10/27 07:40:11;;;;;;;0.57;0.57;;;;;;;13.22;98.10;100895.97;5127387;28;20026;-75
2022/10/27 07:42:42;;;;;;;0.60;0.60;;;;;;;13.24;97.91;100903.78;5128571;28;20023;-76
2022/10/27 07:45:08;;;;;;;0.40;0.40;;;;;;;13.19;97.95;100893.41;5110169;28;20030;-76
2022/10/27 07:47:33;;;;;;;0.40;0.40;;;;;;;13.31;98.25;100907.16;5128743;28;20024;-76
2022/10/27 07:49:58;;;;;;;0.35;0.35;;;;;;;13.32;97.93;100907.13;5128337;28;20027;-76
2022/10/27 07:52:24;;;;;;;0.30;0.30;;;;;;;13.34;97.60;100915.81;5128376;28;20024;-77
2022/10/27 07:54:49;;;;;;;0.63;0.63;;;;;;;13.36;97.15;100915.78;5128553;28;20505;-77
2022/10/27 07:57:14;;;;;;;0.43;0.43;;;;;;;13.25;97.51;100900.28;5128422;28;20027;-77
2022/10/27 07:59:40;;;;;;;0.63;0.63;;;;;;;13.34;97.16;100923.63;5128213;28;20035;-77
2022/10/27 08:02:09;;;;;;;0.60;0.60;;;;;;;13.29;97.64;100922.81;5128618;28;20023;-77
2022/10/27 08:04:35;;;;;;;0.30;0.30;;;;;;;13.29;97.64;100916.75;5128200;28;20090;-77
2022/10/27 08:07:00;;;;;;;0.40;0.40;;;;;;;13.28;97.35;100915.88;5128257;28;20024;-77
2022/10/27 08:09:25;;;;;;;0.38;0.38;;;;;;;13.32;97.55;100920.19;5109970;28;20043;-77
2022/10/27 08:11:51;;;;;;;0.40;0.40;;;;;;;13.40;97.79;100917.50;5109741;28;20020;-77
2022/10/27 08:14:16;;;;;;;1.60;1.50;;;;;;;13.46;97.54;100914.81;5109686;28;20031;-77
2022/10/27 08:16:46;;;;;;;0.40;0.40;;;;;;;13.53;97.58;100926.03;5128163;28;20034;-77
2022/10/27 08:19:11;;;;;;;0.82;0.82;;;;;;;13.59;97.64;100936.44;5109829;28;20160;-77
2022/10/27 08:21:37;;;;;;;0.50;0.50;;;;;;;13.56;97.08;100928.63;5127827;28;20016;-77
2022/10/27 08:24:03;;;;;;;0.30;0.30;;;;;;;13.57;96.97;100929.50;5109673;28;20039;-77
2022/10/27 08:26:28;;;;;;;0.40;0.40;;;;;;;13.62;96.77;100933.78;5127994;28;20024;-78
2022/10/27 08:28:53;;;;;;;0.35;0.35;;;;;;;13.62;96.41;100946.84;5127916;28;20032;-76
2022/10/27 08:31:19;;;;;;;0.30;0.30;;;;;;;13.56;95.88;100926.00;5109269;28;20031;-76
2022/10/27 08:33:44;;;;;;;0.40;0.40;;;;;;;13.58;96.17;100931.19;5127470;28;20027;-76
2022/10/27 08:36:10;;;;;;;2.20;1.77;;;;;;;13.61;95.88;100939.88;5127482;28;20040;-76
2022/10/27 08:38:37;;;;;;;0.30;0.30;;;;;;;13.58;96.32;100920.78;5109277;28;20429;-77
2022/10/27 08:41:38;;;;;;;1.00;1.00;;;;;;;13.76;95.85;100943.16;5127428;28;20024;-77
2022/10/27 08:44:31;;;;;;;0.40;0.40;;;;;;;13.82;96.25;100948.28;5123980;28;20056;-76
2022/10/27 08:47:02;;;;;;;0.30;0.30;;;;;;;13.91;96.48;100946.47;5109135;28;20038;-77
2022/10/27 08:49:50;;;;;;;0.98;0.98;;;;;;;13.96;96.24;100944.66;5127302;28;20083;-77
2022/10/27 08:52:15;;;;;;;0.30;0.30;;;;;;;14.00;95.74;100956.75;5108442;28;20062;-77
2022/10/27 08:54:47;;;;;;;0.40;0.40;;;;;;;13.97;95.69;100939.41;5127769;28;20028;-77
2022/10/27 08:57:22;;;;;;;0.40;0.40;;;;;;;13.99;95.11;100942.84;5109147;28;20023;-77
2022/10/27 08:59:51;;;;;;;0.40;0.40;;;;;;;14.04;95.25;100947.16;5127191;28;20024;-77
2022/10/27 09:02:38;;;;;;;0.30;0.30;;;;;;;14.05;95.29;100954.97;5127061;28;20043;-77
2022/10/27 09:05:18;;;;;;;0.40;0.40;;;;;;;13.99;95.25;100947.22;5108672;28;20020;-78
2022/10/27 09:07:59;;;;;;;0.30;0.30;;;;;;;14.05;95.64;100944.53;5127360;28;20047;-78
2022/10/27 09:11:12;;;;;;;0.73;0.73;;;;;;;14.01;95.02;100963.69;5108728;28;20395;-78
2022/10/27 09:13:37;;;;;;;;;;;;;;;14.03;93.56;100976.72;5127401;28;20031;-78
2022/10/27 09:16:07;;;;;;;0.30;0.30;;;;;;;13.94;94.47;100970.78;5108468;28;19907;-76
2022/10/27 09:18:41;;;;;;;0.93;0.93;;;;;;;13.99;94.72;100976.78;5127201;28;20024;-77
2022/10/27 09:21:18;;;;;;;0.50;0.50;;;;;;;13.96;94.83;100968.16;5108622;28;20446;-78
2022/10/27 09:23:52;;;;;;;0.40;0.40;;;;;;;13.88;94.62;100969.09;5126900;28;20029;-77
2022/10/27 09:26:22;;;;;;;0.35;0.35;;;;;;;13.92;94.87;100974.28;5108439;28;20020;-77
2022/10/27 09:28:53;;;;;;;0.63;0.63;;;;;;;13.91;94.53;100978.66;5126708;28;20031;-77
2022/10/27 09:31:42;;;;;;;0.40;0.40;;;;;;;13.90;93.68;100982.13;5108225;28;20024;-77
2022/10/27 09:34:17;;;;;;;14.20;3.33;;;;;;;13.86;93.93;100983.06;5126508;28;20104;-77
2022/10/27 09:36:43;;;;;;;0.40;0.40;;;;;;;13.83;94.21;100980.50;5108072;28;20105;-78
2022/10/27 09:39:09;;;;;;;0.60;0.60;;;;;;;13.95;93.98;100990.75;5126343;28;20024;-78
2022/10/27 09:41:35;;;;;;;0.50;0.50;;;;;;;13.95;94.46;100998.59;5126370;28;20047;-78
2022/10/27 09:44:02;;;;;;;0.50;0.50;;;;;;;13.99;94.88;100996.81;5126478;28;20184;-78
2022/10/27 09:46:29;;;;;;;0.30;0.30;;;;;;;14.08;94.55;101009.75;5126450;28;20027;-79
2022/10/27 09:49:04;;;;;;;0.38;0.38;;;;;;;14.12;93.93;101013.19;5126233;28;20160;-78
2022/10/27 09:51:42;;;;;;;0.50;0.50;;;;;;;13.99;93.56;100995.03;5126083;28;20305;-78
2022/10/27 09:54:28;;;;;;;0.40;0.40;;;;;;;14.02;92.88;100994.16;5126388;28;20442;-77
2022/10/27 09:56:54;;;;;;;0.75;0.75;;;;;;;13.99;92.37;101004.66;5108042;28;20035;-77
2022/10/27 09:59:22;;;;;;;13.35;5.40;;;;;;;14.00;92.22;101004.63;5107895;28;20095;-76
2022/10/27 10:01:55;;;;;;;0.40;0.40;;;;;;;14.08;93.23;101001.03;5126149;28;20016;-76
2022/10/27 10:04:56;;;;;;;0.32;0.32;;;;;;;14.10;93.54;101004.50;5125413;28;20023;-78
2022/10/27 10:07:45;;;;;;;1.77;1.75;;;;;;;14.10;93.20;101010.59;5026655;28;20032;-78
2022/10/27 10:10:13;;;;;;;0.55;0.55;;;;;;;14.17;93.49;101005.28;5026290;28;20099;-78
2022/10/27 10:12:39;;;;;;;0.40;0.40;;;;;;;14.15;93.86;101007.03;5043037;28;20061;-76
2022/10/27 10:15:10;;;;;;;0.30;0.30;;;;;;;14.15;92.82;101007.03;5042937;28;20607;-77
2022/10/27 10:17:38;;;;;;;0.82;0.82;;;;;;;14.06;92.67;101000.19;5026493;28;20025;-76
2022/10/27 10:20:06;;;;;;;0.40;0.40;;;;;;;14.08;92.96;101003.66;5042812;28;20029;-76
2022/10/27 10:22:33;;;;;;;0.40;0.40;;;;;;;14.05;92.79;101007.19;5042852;28;20052;-76
2022/10/27 10:25:25;;;;;;;1.10;0.88;;;;;;;14.05;92.37;101017.63;5026532;28;20029;-77
2022/10/27 10:27:59;;;;;;;0.40;0.40;;;;;;;14.04;92.45;101015.88;5026524;28;20094;-77
2022/10/27 10:30:25;;;;;;;0.85;0.85;;;;;;;14.06;91.71;101021.94;5043142;28;20300;-78
2022/10/27 10:32:55;;;;;;;0.40;0.40;;;;;;;14.04;92.12;101022.84;5042981;28;20025;-77
2022/10/27 10:35:38;;;;;;;4.95;1.77;;;;;;;14.04;92.03;101026.31;5042751;28;20045;-77
2022/10/27 10:38:23;;;;;;;0.30;0.30;;;;;;;14.04;91.82;101020.25;5042716;28;20045;-77
2022/10/27 10:40:54;;;;;;;0.30;0.30;;;;;;;14.07;92.18;101014.97;5066746;28;20028;-76
2022/10/27 10:43:19;;;;;;;0.40;0.40;;;;;;;14.06;91.75;101019.34;5107444;28;20387;-75
2022/10/27 10:45:52;;;;;;;0.40;0.40;;;;;;;13.96;91.63;101009.91;5125830;28;20024;-77
2022/10/27 10:48:39;;;;;;;0.30;0.30;;;;;;;14.03;91.65;101008.94;5125602;28;20024;-77
2022/10/27 10:51:06;;;;;;;0.30;0.30;;;;;;;13.94;92.02;101003.84;5107329;28;20083;-77
2022/10/27 10:53:37;;;;;;;0.30;0.30;;;;;;;13.98;91.91;101005.50;5107347;28;20034;-77
2022/10/27 10:56:15;;;;;;;15.00;3.70;;;;;;;14.06;92.49;101014.13;5125924;28;20024;-77
2022/10/27 10:58:41;;;;;;;0.40;0.40;;;;;;;14.08;92.79;101014.97;5125769;28;20086;-78
2022/10/27 11:01:07;;;;;;;0.30;0.30;;;;;;;14.10;92.21;101015.81;5125619;28;20030;-78
2022/10/27 11:03:39;;;;;;;0.30;0.30;;;;;;;14.05;91.97;101009.78;5125496;28;20039;-77
2022/10/27 11:06:14;;;;;;;0.88;0.88;;;;;;;14.10;92.36;101015.81;5125473;28;20080;-78
2022/10/27 11:08:43;;;;;;;0.30;0.30;;;;;;;14.10;92.15;101014.94;5125603;28;20034;-78
2022/10/27 11:11:21;;;;;;;0.40;0.40;;;;;;;14.07;91.62;101014.97;5125642;28;20024;-77
2022/10/27 11:13:56;;;;;;;0.30;0.30;;;;;;;14.00;91.86;101008.97;5125721;28;20120;-77
2022/10/27 11:16:23;;;;;;;2.92;1.88;;;;;;;14.08;91.80;101020.19;5129203;28;20047;-77
2022/10/27 11:18:59;;;;;;;39.03;4.57;;;;;;;14.05;91.41;101020.22;5129021;28;20015;-77
2022/10/27 11:21:41;;;;;;;2.70;2.25;;;;;;;13.93;90.55;101018.63;5129289;28;20012;-78
2022/10/27 11:24:20;;;;;;;0.40;0.40;;;;;;;13.92;91.44;101016.91;5129129;28;20020;-78
2022/10/27 11:27:03;;;;;;;0.40;0.40;;;;;;;14.03;91.53;101034.16;5129112;28;20027;-78
2022/10/27 11:29:46;;;;;;;1.33;1.33;;;;;;;13.94;91.14;101025.59;5110619;28;20026;-78
2022/10/27 11:32:33;;;;;;;1.20;1.17;;;;;;;14.01;90.96;101036.78;5110512;28;20028;-76